createdAt,value
2023-03-11T00:01:46.661Z,76.31
2023-03-11T00:04:14.542Z,76.37
2023-03-11T00:06:42.363Z,76.40
2023-03-11T00:09:10.331Z,76.40
2023-03-11T00:11:38.074Z,76.44
2023-03-11T00:14:05.836Z,76.47
2023-03-11T00:16:33.644Z,76.45
2023-03-11T00:19:01.427Z,76.51
2023-03-11T00:21:29.258Z,76.50
2023-03-11T00:24:01.030Z,76.51
2023-03-11T00:26:28.743Z,76.51
2023-03-11T00:28:56.555Z,76.57
2023-03-11T00:31:26.491Z,76.67
2023-03-11T00:33:54.976Z,76.73
2023-03-11T00:36:24.389Z,76.73
2023-03-11T00:38:52.104Z,76.75
2023-03-11T00:41:19.862Z,76.74
2023-03-11T00:43:47.724Z,76.87
2023-03-11T00:46:15.486Z,76.91
2023-03-11T00:48:43.211Z,76.88
2023-03-11T00:51:14.732Z,76.97
2023-03-11T00:53:43.967Z,77.05
2023-03-11T00:56:14.239Z,77.08
2023-03-11T00:58:45.645Z,77.13
2023-03-11T01:01:17.398Z,77.23
2023-03-11T01:03:45.289Z,77.26
2023-03-11T01:06:13.721Z,77.24
2023-03-11T01:08:41.665Z,77.30
2023-03-11T01:11:10.052Z,77.29
2023-03-11T01:13:40.230Z,77.36
2023-03-11T01:16:09.346Z,77.43
2023-03-11T01:18:37.209Z,77.55
2023-03-11T01:21:05.312Z,77.57
2023-03-11T01:23:33.539Z,77.61
2023-03-11T01:26:01.312Z,77.68
2023-03-11T01:28:29.067Z,77.78
2023-03-11T01:31:00.216Z,77.83
2023-03-11T01:33:29.213Z,77.88
2023-03-11T01:35:57.071Z,77.87
2023-03-11T01:38:28.603Z,77.90
2023-03-11T01:40:56.612Z,77.96
2023-03-11T01:43:43.222Z,77.95
2023-03-11T01:46:28.086Z,78.01
2023-03-11T01:48:56.516Z,78.00
2023-03-11T01:51:38.526Z,77.96
2023-03-11T01:54:11.794Z,77.92
2023-03-11T01:56:42.011Z,77.96
2023-03-11T01:59:13.654Z,77.99
2023-03-11T02:02:10.191Z,78.00
2023-03-11T02:04:40.442Z,78.03
2023-03-11T02:07:10.114Z,78.06
2023-03-11T02:09:38.767Z,77.99
2023-03-11T02:12:08.898Z,78.00
2023-03-11T02:14:41.975Z,78.01
2023-03-11T02:17:10.079Z,78.01
2023-03-11T02:19:49.839Z,78.03
2023-03-11T02:22:17.562Z,78.02
2023-03-11T02:24:54.209Z,78.06
2023-03-11T02:27:23.825Z,78.04
2023-03-11T02:29:52.136Z,78.01
2023-03-11T02:32:20.685Z,78.04
2023-03-11T02:34:48.538Z,78.01
2023-03-11T02:37:17.414Z,78.05
2023-03-11T02:39:54.845Z,78.03
2023-03-11T02:42:31.451Z,78.06
2023-03-11T02:45:10.947Z,78.07
2023-03-11T02:47:41.061Z,78.11
2023-03-11T02:50:13.773Z,78.10
2023-03-11T02:52:42.090Z,78.12
2023-03-11T02:55:11.941Z,78.17
2023-03-11T02:57:40.697Z,78.29
2023-03-11T03:00:14.554Z,78.26
2023-03-11T03:02:45.616Z,78.29
2023-03-11T03:05:13.991Z,78.32
2023-03-11T03:07:42.121Z,78.49
2023-03-11T03:10:10.779Z,78.61
2023-03-11T03:12:38.551Z,78.67
2023-03-11T03:15:07.017Z,78.73
2023-03-11T03:17:34.860Z,78.81
2023-03-11T03:20:05.880Z,79.04
2023-03-11T03:22:33.735Z,79.13
2023-03-11T03:25:01.509Z,79.01
2023-03-11T03:27:31.420Z,79.00
2023-03-11T03:29:59.367Z,78.98
2023-03-11T03:32:27.429Z,78.91
2023-03-11T03:34:59.068Z,78.92
2023-03-11T03:37:35.881Z,78.97
2023-03-11T03:40:08.828Z,78.91
2023-03-11T03:42:38.152Z,78.95
2023-03-11T03:45:08.015Z,78.90
2023-03-11T03:47:36.454Z,78.75
2023-03-11T03:50:06.775Z,78.72
2023-03-11T03:52:38.857Z,78.65
2023-03-11T03:55:07.115Z,78.59
2023-03-11T03:57:35.015Z,78.60
2023-03-11T04:00:04.630Z,78.54
2023-03-11T04:02:41.856Z,78.52
2023-03-11T04:05:15.258Z,78.49
2023-03-11T04:07:43.818Z,78.55
2023-03-11T04:10:14.177Z,78.55
2023-03-11T04:12:42.239Z,78.52
2023-03-11T04:15:11.134Z,78.46
2023-03-11T04:17:39.636Z,78.47
2023-03-11T04:20:10.343Z,78.43
2023-03-11T04:22:38.212Z,78.42
2023-03-11T04:25:06.792Z,78.38
2023-03-11T04:27:34.764Z,78.36
2023-03-11T04:30:03.517Z,78.34
2023-03-11T04:32:32.008Z,78.34
2023-03-11T04:35:00.208Z,78.35
2023-03-11T04:37:30.045Z,78.35
2023-03-11T04:39:58.355Z,78.28
2023-03-11T04:42:27.245Z,78.31
2023-03-11T04:44:55.599Z,78.32
2023-03-11T04:47:23.932Z,78.30
2023-03-11T04:49:52.277Z,78.35
2023-03-11T04:52:20.092Z,78.40
2023-03-11T04:54:48.335Z,78.46
2023-03-11T04:57:16.366Z,78.50
2023-03-11T04:59:45.018Z,78.54
2023-03-11T05:02:13.130Z,78.56
2023-03-11T05:04:43.573Z,78.62
2023-03-11T05:07:11.344Z,78.68
2023-03-11T05:09:39.314Z,78.74
2023-03-11T05:12:12.221Z,78.81
2023-03-11T05:14:40.766Z,78.87
2023-03-11T05:17:10.538Z,78.91
2023-03-11T05:19:38.384Z,78.96
2023-03-11T05:22:21.236Z,79.04
2023-03-11T05:24:49.781Z,79.06
2023-03-11T05:27:18.140Z,79.19
2023-03-11T05:29:47.467Z,79.16
2023-03-11T05:32:15.681Z,79.27
2023-03-11T05:34:43.834Z,79.38
2023-03-11T05:37:12.232Z,79.49
2023-03-11T05:39:40.145Z,79.45
2023-03-11T05:42:08.578Z,79.59
2023-03-11T05:44:36.498Z,79.76
2023-03-11T05:47:04.467Z,79.76
2023-03-11T05:49:33.019Z,79.97
2023-03-11T05:52:01.266Z,80.12
2023-03-11T05:54:30.351Z,80.36
2023-03-11T05:56:58.270Z,80.39
2023-03-11T05:59:26.740Z,80.72
2023-03-11T06:01:58.600Z,80.74
2023-03-11T06:04:26.794Z,80.95
2023-03-11T06:06:54.964Z,81.05
2023-03-11T06:09:24.071Z,81.01
2023-03-11T06:11:52.184Z,81.07
2023-03-11T06:14:20.185Z,81.16
2023-03-11T06:16:49.771Z,81.38
2023-03-11T06:19:17.819Z,81.33
2023-03-11T06:21:48.919Z,81.41
2023-03-11T06:24:18.025Z,81.38
2023-03-11T06:26:46.839Z,81.60
2023-03-11T06:29:15.316Z,81.76
2023-03-11T06:31:43.296Z,81.78
2023-03-11T06:34:12.290Z,81.67
2023-03-11T06:36:40.277Z,81.66
2023-03-11T06:39:08.088Z,81.73
2023-03-11T06:41:36.442Z,81.79
2023-03-11T06:44:05.097Z,81.68
2023-03-11T06:46:33.765Z,81.63
2023-03-11T06:49:01.577Z,81.87
2023-03-11T06:51:29.799Z,81.86
2023-03-11T06:53:57.828Z,81.87
2023-03-11T06:56:26.142Z,81.96
2023-03-11T06:58:57.395Z,82.16
2023-03-11T07:01:27.258Z,82.13
2023-03-11T07:03:55.637Z,82.27
2023-03-11T07:06:26.424Z,82.22
2023-03-11T07:08:59.250Z,82.26
2023-03-11T07:11:28.800Z,82.33
2023-03-11T07:14:02.049Z,82.35
2023-03-11T07:16:31.941Z,82.34
2023-03-11T07:19:05.361Z,82.47
2023-03-11T07:21:33.157Z,82.43
2023-03-11T07:24:02.755Z,82.62
2023-03-11T07:26:32.392Z,82.66
2023-03-11T07:29:00.472Z,82.75
2023-03-11T07:31:29.632Z,82.51
2023-03-11T07:34:00.049Z,82.43
2023-03-11T07:36:28.896Z,82.54
2023-03-11T07:39:01.131Z,82.72
2023-03-11T07:41:31.364Z,83.08
2023-03-11T07:44:00.871Z,83.33
2023-03-11T07:46:30.278Z,83.27
2023-03-11T07:48:58.312Z,83.24
2023-03-11T07:51:29.544Z,83.35
2023-03-11T07:53:59.371Z,83.50
2023-03-11T07:56:32.227Z,83.73
2023-03-11T07:59:01.599Z,83.82
2023-03-11T08:01:36.881Z,84.06
2023-03-11T08:04:07.024Z,83.98
2023-03-11T08:06:36.971Z,83.83
2023-03-11T08:09:09.248Z,84.04
2023-03-11T08:11:37.678Z,84.02
2023-03-11T08:14:06.282Z,83.98
2023-03-11T08:16:34.104Z,84.03
2023-03-11T08:19:02.252Z,83.82
2023-03-11T08:21:32.438Z,83.65
2023-03-11T08:24:01.777Z,83.56
2023-03-11T08:26:30.831Z,83.63
2023-03-11T08:28:59.785Z,83.56
2023-03-11T08:31:30.626Z,83.62
2023-03-11T08:34:01.774Z,83.57
2023-03-11T08:36:30.218Z,83.53
2023-03-11T08:38:58.731Z,83.53
2023-03-11T08:41:27.608Z,83.53
2023-03-11T08:43:55.903Z,83.52
2023-03-11T08:46:33.294Z,83.58
2023-03-11T08:49:01.711Z,83.66
2023-03-11T08:51:32.362Z,83.75
2023-03-11T08:54:01.218Z,83.83
2023-03-11T08:56:29.788Z,83.81
2023-03-11T08:58:57.713Z,83.76
2023-03-11T09:01:25.710Z,83.80
2023-03-11T09:03:53.771Z,83.86
2023-03-11T09:06:21.800Z,83.87
2023-03-11T09:08:50.010Z,83.93
2023-03-11T09:11:19.086Z,84.19
2023-03-11T09:13:47.058Z,84.29
2023-03-11T09:16:17.730Z,84.31
2023-03-11T09:18:46.183Z,84.31
2023-03-11T09:21:14.452Z,84.25
2023-03-11T09:23:44.509Z,84.43
2023-03-11T09:26:15.855Z,84.71
2023-03-11T09:28:43.843Z,84.73
2023-03-11T09:31:11.985Z,84.73
2023-03-11T09:33:41.469Z,84.97
2023-03-11T09:36:12.953Z,85.01
2023-03-11T09:38:42.260Z,84.82
2023-03-11T09:41:27.318Z,85.10
2023-03-11T09:44:16.451Z,85.44
2023-03-11T09:47:11.392Z,85.64
2023-03-11T09:49:39.117Z,85.57
2023-03-11T09:52:15.462Z,85.51
2023-03-11T09:54:48.261Z,85.52
2023-03-11T09:57:22.030Z,85.18
2023-03-11T09:59:50.528Z,84.89
2023-03-11T10:02:21.327Z,84.70
2023-03-11T10:05:08.496Z,84.80
2023-03-11T10:07:40.576Z,85.10
2023-03-11T10:10:14.553Z,85.37
2023-03-11T10:12:59.314Z,85.50
2023-03-11T10:15:58.708Z,85.76
2023-03-11T10:18:32.231Z,85.55
2023-03-11T10:21:10.034Z,85.11
2023-03-11T10:23:46.409Z,85.09
2023-03-11T10:26:23.185Z,85.28
2023-03-11T10:29:18.887Z,85.47
2023-03-11T10:32:03.077Z,85.86
2023-03-11T10:34:39.660Z,86.15
2023-03-11T10:37:46.276Z,86.49
2023-03-11T10:40:29.750Z,86.65
2023-03-11T10:43:03.084Z,86.68
2023-03-11T10:45:38.384Z,86.62
2023-03-11T10:48:11.716Z,86.61
2023-03-11T10:51:14.899Z,86.74
2023-03-11T10:53:52.529Z,86.94
2023-03-11T10:56:40.684Z,87.12
2023-03-11T10:59:25.490Z,87.26
2023-03-11T11:02:20.117Z,87.21
2023-03-11T11:05:17.728Z,87.18
2023-03-11T11:07:47.670Z,86.82
2023-03-11T11:10:23.623Z,86.41
2023-03-11T11:12:56.190Z,86.36
2023-03-11T11:15:52.461Z,86.44
2023-03-11T11:18:47.137Z,86.39
2023-03-11T11:21:17.524Z,86.59
2023-03-11T11:24:01.240Z,86.55
2023-03-11T11:26:29.043Z,86.40
2023-03-11T11:29:10.419Z,86.43
2023-03-11T11:31:40.966Z,86.67
2023-03-11T11:34:27.034Z,86.79
2023-03-11T11:36:57.189Z,86.91
2023-03-11T11:39:28.887Z,87.08
2023-03-11T11:41:57.529Z,87.21
2023-03-11T11:44:33.516Z,87.37
2023-03-11T11:47:06.339Z,87.48
2023-03-11T11:49:36.835Z,87.64
2023-03-11T11:52:20.765Z,87.67
2023-03-11T11:54:59.002Z,87.66
2023-03-11T11:57:27.819Z,87.78
2023-03-11T11:59:57.428Z,87.79
2023-03-11T12:02:37.923Z,87.82
2023-03-11T12:05:47.374Z,87.63
2023-03-11T12:08:40.046Z,87.56
2023-03-11T12:11:14.787Z,87.48
2023-03-11T12:14:12.336Z,87.35
2023-03-11T12:17:03.301Z,87.33
2023-03-11T12:19:58.058Z,87.48
2023-03-11T12:22:40.655Z,87.65
2023-03-11T12:25:29.757Z,87.69
2023-03-11T12:28:18.954Z,87.68
2023-03-11T12:30:52.674Z,87.62
2023-03-11T12:33:26.350Z,87.65
2023-03-11T12:35:57.029Z,87.79
2023-03-11T12:38:33.739Z,88.12
2023-03-11T12:41:13.761Z,88.20
2023-03-11T12:43:41.486Z,88.37
2023-03-11T12:46:14.438Z,88.36
2023-03-11T12:49:06.777Z,88.26
2023-03-11T12:51:34.644Z,88.24
2023-03-11T12:54:34.084Z,88.06
2023-03-11T12:57:17.147Z,87.74
2023-03-11T13:00:12.548Z,87.63
2023-03-11T13:03:02.578Z,87.78
2023-03-11T13:05:49.218Z,87.91
2023-03-11T13:08:21.656Z,88.11
2023-03-11T13:10:54.491Z,88.19
2023-03-11T13:13:25.138Z,88.23
2023-03-11T13:15:53.578Z,88.41
2023-03-11T13:18:30.510Z,88.66
2023-03-11T13:21:02.981Z,88.88
2023-03-11T13:23:40.721Z,88.81
2023-03-11T13:26:43.672Z,88.77
2023-03-11T13:29:29.430Z,88.80
2023-03-11T13:32:11.434Z,88.73
2023-03-11T13:34:58.443Z,88.85
2023-03-11T13:37:57.283Z,88.98
2023-03-11T13:40:34.046Z,88.97
2023-03-11T13:43:05.247Z,88.85
2023-03-11T13:45:35.807Z,88.71
2023-03-11T13:48:12.533Z,88.47
2023-03-11T13:50:48.859Z,88.33
2023-03-11T13:53:29.404Z,88.07
2023-03-11T13:55:57.910Z,87.80
2023-03-11T13:58:28.555Z,87.69
2023-03-11T14:00:59.318Z,87.75
2023-03-11T14:03:31.984Z,87.75
2023-03-11T14:06:07.101Z,87.82
2023-03-11T14:08:37.235Z,87.87
2023-03-11T14:11:10.856Z,87.93
2023-03-11T14:13:42.676Z,87.74
2023-03-11T14:16:31.407Z,87.04
2023-03-11T14:19:17.072Z,86.82
2023-03-11T14:21:46.975Z,86.87
2023-03-11T14:24:25.196Z,86.87
2023-03-11T14:26:56.982Z,86.75
2023-03-11T14:29:34.231Z,86.63
2023-03-11T14:32:17.902Z,86.31
2023-03-11T14:34:46.011Z,85.93
2023-03-11T14:37:34.270Z,85.75
2023-03-11T14:40:02.358Z,85.14
2023-03-11T14:42:41.357Z,84.75
2023-03-11T14:45:14.176Z,84.48
2023-03-11T14:47:52.873Z,84.27
2023-03-11T14:50:24.443Z,84.19
2023-03-11T14:53:15.392Z,83.87
2023-03-11T14:55:54.552Z,83.15
2023-03-11T14:58:31.075Z,83.03
2023-03-11T15:01:28.945Z,82.89
2023-03-11T15:04:04.958Z,82.57
2023-03-11T15:06:33.628Z,82.32
2023-03-11T15:09:23.182Z,82.14
2023-03-11T15:11:59.202Z,81.80
2023-03-11T15:14:35.278Z,81.33
2023-03-11T15:17:35.235Z,81.25
2023-03-11T15:20:07.989Z,80.85
2023-03-11T15:22:39.782Z,80.39
2023-03-11T15:25:19.286Z,80.38
2023-03-11T15:27:47.146Z,80.42
2023-03-11T15:30:21.437Z,80.50
2023-03-11T15:32:50.050Z,80.12
2023-03-11T15:35:26.862Z,80.09
2023-03-11T15:38:21.274Z,80.12
2023-03-11T15:41:01.191Z,80.37
2023-03-11T15:43:32.731Z,80.70
2023-03-11T15:46:03.082Z,80.94
2023-03-11T15:48:31.385Z,81.29
2023-03-11T15:51:00.758Z,81.75
2023-03-11T15:53:30.378Z,82.13
2023-03-11T15:56:08.276Z,82.43
2023-03-11T15:58:38.143Z,82.41
2023-03-11T16:01:06.060Z,82.43
2023-03-11T16:03:33.831Z,82.01
2023-03-11T16:06:01.558Z,81.95
2023-03-11T16:08:29.257Z,81.74
2023-03-11T16:10:58.048Z,81.63
2023-03-11T16:13:25.934Z,81.33
2023-03-11T16:15:53.689Z,80.64
2023-03-11T16:18:21.420Z,80.13
2023-03-11T16:20:52.546Z,79.65
2023-03-11T16:23:22.136Z,79.28
2023-03-11T16:25:50.518Z,79.44
2023-03-11T16:28:18.845Z,79.68
2023-03-11T16:30:49.532Z,80.04
2023-03-11T16:33:17.378Z,80.58
2023-03-11T16:35:45.848Z,81.34
2023-03-11T16:38:14.286Z,81.75
2023-03-11T16:40:42.275Z,82.10
2023-03-11T16:43:13.634Z,82.51
2023-03-11T16:45:41.532Z,82.75
2023-03-11T16:48:09.410Z,82.90
2023-03-11T16:50:37.769Z,82.79
2023-03-11T16:53:05.700Z,82.59
2023-03-11T16:55:33.455Z,82.55
2023-03-11T16:58:01.387Z,82.50
2023-03-11T17:00:29.526Z,82.43
2023-03-11T17:02:57.358Z,82.41
2023-03-11T17:05:25.357Z,82.51
2023-03-11T17:07:57.152Z,82.68
2023-03-11T17:10:25.046Z,82.91
2023-03-11T17:12:52.767Z,82.96
2023-03-11T17:15:20.775Z,83.02
2023-03-11T17:17:48.534Z,83.02
2023-03-11T17:20:16.495Z,83.07
2023-03-11T17:22:44.449Z,83.16
2023-03-11T17:25:12.409Z,83.27
2023-03-11T17:27:40.214Z,83.42
2023-03-11T17:30:08.656Z,83.42
2023-03-11T17:32:36.434Z,83.38
2023-03-11T17:35:05.140Z,83.41
2023-03-11T17:37:33.293Z,83.37
2023-03-11T17:40:01.018Z,83.33
2023-03-11T17:42:28.746Z,83.22
2023-03-11T17:44:57.076Z,83.09
2023-03-11T17:47:27.812Z,83.02
2023-03-11T17:49:55.630Z,82.70
2023-03-11T17:52:23.504Z,82.45
2023-03-11T17:54:53.456Z,82.18
2023-03-11T17:57:21.331Z,82.04
2023-03-11T17:59:52.743Z,81.93
2023-03-11T18:02:21.130Z,81.62
2023-03-11T18:04:53.854Z,81.13
2023-03-11T18:07:23.784Z,80.83
2023-03-11T18:09:53.017Z,80.70
2023-03-11T18:12:21.931Z,80.46
2023-03-11T18:14:49.768Z,79.90
2023-03-11T18:17:18.645Z,79.10
2023-03-11T18:19:46.466Z,78.82
2023-03-11T18:22:15.514Z,78.73
2023-03-11T18:24:43.293Z,78.66
2023-03-11T18:27:11.013Z,78.15
2023-03-11T18:29:38.799Z,77.40
2023-03-11T18:32:06.566Z,76.87
2023-03-11T18:34:34.552Z,76.42
2023-03-11T18:37:02.535Z,76.02
2023-03-11T18:39:30.395Z,75.84
2023-03-11T18:41:58.222Z,75.50
2023-03-11T18:44:26.234Z,75.51
2023-03-11T18:46:54.069Z,75.76
2023-03-11T18:49:21.800Z,75.75
2023-03-11T18:51:49.551Z,75.34
2023-03-11T18:54:17.379Z,75.02
2023-03-11T18:56:45.311Z,74.64
2023-03-11T18:59:14.539Z,74.45
2023-03-11T19:01:42.524Z,74.76
2023-03-11T19:04:10.478Z,74.93
2023-03-11T19:06:38.465Z,74.81
2023-03-11T19:09:06.739Z,74.66
2023-03-11T19:11:34.542Z,74.70
2023-03-11T19:14:02.419Z,74.68
2023-03-11T19:16:30.316Z,74.33
2023-03-11T19:18:58.266Z,74.31
2023-03-11T19:21:26.216Z,74.29
2023-03-11T19:23:55.393Z,74.10
2023-03-11T19:26:41.493Z,74.11
2023-03-11T19:29:11.410Z,74.16
2023-03-11T19:31:39.369Z,74.17
2023-03-11T19:34:07.257Z,74.32
2023-03-11T19:36:35.241Z,74.37
2023-03-11T19:39:03.524Z,74.43
2023-03-11T19:41:31.311Z,74.55
2023-03-11T19:43:59.220Z,74.70
2023-03-11T19:46:27.636Z,74.82
2023-03-11T19:48:58.884Z,74.89
2023-03-11T19:51:32.917Z,75.02
2023-03-11T19:54:06.948Z,75.20
2023-03-11T19:56:34.733Z,75.30
2023-03-11T19:59:02.615Z,75.38
2023-03-11T20:01:31.728Z,75.46
2023-03-11T20:03:59.594Z,75.57
2023-03-11T20:06:27.437Z,75.70
2023-03-11T20:08:55.194Z,75.84
2023-03-11T20:11:23.052Z,75.94
2023-03-11T20:13:50.799Z,76.06
2023-03-11T20:16:19.497Z,76.23
2023-03-11T20:18:51.511Z,76.36
2023-03-11T20:21:19.521Z,76.44
2023-03-11T20:23:49.130Z,76.54
2023-03-11T20:26:18.573Z,76.70
2023-03-11T20:28:46.606Z,76.85
2023-03-11T20:31:17.660Z,77.06
2023-03-11T20:33:46.333Z,77.13
2023-03-11T20:36:18.850Z,77.11
2023-03-11T20:38:52.055Z,77.19
2023-03-11T20:41:20.282Z,77.24
2023-03-11T20:43:48.066Z,77.29
2023-03-11T20:46:15.911Z,77.25
2023-03-11T20:48:43.782Z,77.08
2023-03-11T20:51:19.482Z,77.02
2023-03-11T20:53:48.902Z,76.98
2023-03-11T20:56:19.931Z,76.98
2023-03-11T20:58:51.417Z,76.98
2023-03-11T21:01:21.080Z,76.93
2023-03-11T21:03:49.228Z,76.94
2023-03-11T21:06:23.267Z,76.95
2023-03-11T21:08:53.938Z,76.98
2023-03-11T21:11:22.939Z,76.97
2023-03-11T21:13:51.616Z,77.04
2023-03-11T21:16:20.555Z,77.11
2023-03-11T21:18:49.583Z,77.20
2023-03-11T21:21:18.604Z,77.32
2023-03-11T21:23:48.028Z,77.52
2023-03-11T21:26:17.324Z,77.64
2023-03-11T21:28:46.762Z,77.77
2023-03-11T21:31:22.568Z,77.93
2023-03-11T21:33:55.947Z,78.06
2023-03-11T21:36:24.104Z,78.33
2023-03-11T21:38:52.075Z,78.86
2023-03-11T21:41:25.138Z,77.92
2023-03-11T21:43:55.085Z,77.72
2023-03-11T21:46:26.249Z,77.92
2023-03-11T21:48:54.465Z,78.30
2023-03-11T21:51:22.432Z,78.54
2023-03-11T21:53:50.646Z,78.75
2023-03-11T21:56:18.777Z,78.91
2023-03-11T21:58:46.866Z,79.04
2023-03-11T22:01:14.953Z,79.09
2023-03-11T22:03:43.969Z,79.23
2023-03-11T22:06:13.135Z,79.20
2023-03-11T22:08:42.448Z,79.16
2023-03-11T22:11:17.452Z,79.14
2023-03-11T22:13:46.945Z,79.10
2023-03-11T22:16:15.245Z,79.05
2023-03-11T22:18:43.771Z,79.04
2023-03-11T22:21:12.096Z,79.03
2023-03-11T22:23:39.936Z,79.06
2023-03-11T22:26:08.363Z,79.09
2023-03-11T22:28:36.830Z,79.11
2023-03-11T22:31:12.601Z,79.17
2023-03-11T22:33:40.784Z,79.25
2023-03-11T22:36:09.413Z,79.35
2023-03-11T22:38:38.486Z,79.36
2023-03-11T22:41:07.890Z,79.39
2023-03-11T22:43:36.825Z,79.49
2023-03-11T22:46:06.158Z,79.63
2023-03-11T22:48:34.528Z,79.74
2023-03-11T22:51:02.777Z,79.88
2023-03-11T22:53:30.564Z,79.97
2023-03-11T22:55:58.457Z,80.04
2023-03-11T22:58:26.196Z,80.12
2023-03-11T23:00:54.080Z,80.21
2023-03-11T23:03:21.824Z,80.23
2023-03-11T23:05:49.569Z,80.26
2023-03-11T23:08:17.867Z,80.26
2023-03-11T23:10:47.344Z,80.24
2023-03-11T23:13:15.891Z,80.37
2023-03-11T23:15:45.435Z,80.53
2023-03-11T23:18:15.507Z,80.61
2023-03-11T23:20:44.323Z,80.74
2023-03-11T23:23:12.901Z,80.79
2023-03-11T23:25:41.547Z,80.80
2023-03-11T23:28:09.321Z,80.81
2023-03-11T23:30:37.103Z,80.86
2023-03-11T23:33:04.998Z,80.97
2023-03-11T23:35:33.333Z,81.04
2023-03-11T23:38:01.203Z,81.09
2023-03-11T23:40:29.109Z,81.08
2023-03-11T23:42:57.000Z,81.13
2023-03-11T23:45:24.723Z,81.16
2023-03-11T23:47:52.769Z,81.17
2023-03-11T23:50:20.529Z,81.29
2023-03-11T23:52:48.259Z,81.32
2023-03-11T23:55:16.089Z,81.33
2023-03-11T23:57:43.840Z,81.38
